Desert Aire, Washington
Current Conditions -  °F | °C
As of 9:56 PM on Wednesday 22 Oct 2014 (Local Time) from K1YT Reporting Station
Broken Clouds Broken Clouds  
Wind Chill: 14°   Ceiling: 12000
Heat Index: 14°   Visibility: 10mi
Dew Point:   Wind: 23mph
Humidity: 71%   Direction: 190°S
Pressure: 29.66"   Gusts: 39mph
Location:  46.6873°N, 119.887°W
Report Text: K1YT 230456Z AUTO 19020G34KT 10SM SCT080 BKN120 BKN180 14/09 A2966 RMK AO2 PK WND 21033/50 SLPNO T01420091
Loading
Personal Weather Stations






























Interactive Weather Map
Tropical Storm Tracking
New forecast layout! Learn more

10-Day Weather Forecast

Advertisements
Track Severe Weather on mobile